AUA528L LIML-LOWW
Flight info
| Callsign | AUA528L |
|---|---|
| Flight time | 1h 0m |
| Altitude | 36000 |
| Route | NES6A NESTI DCT ARALD/N0433F370 DCT ABTAN ABTA2W |
| Aircraft | A320/M-SDE3FGHIRWY/LB1 |
Departure
| Time | 2026-04-30 19:25 |
|---|---|
| Airport | Milano Linate Airport (LIML) |
Arrival
| Time | 2026-04-30 20:25 |
|---|---|
| Airport | Vienna International Airport (LOWW) |
| Time | Latitude | Longitude | Altitude | Speed | Heading |
|---|---|---|---|---|---|
| 2026-04-30 18:54 | 45.45974 | 9.27967 | 360 ft | 0 kts | 0° |
| 2026-04-30 19:16 | 45.45932 | 9.27967 | 360 ft | 4 kts | 5° |
| 2026-04-30 19:17 | 45.45912 | 9.27955 | 360 ft | 4 kts | 64° |
| 2026-04-30 19:17 | 45.45907 | 9.27905 | 360 ft | 0 kts | 90° |
| 2026-04-30 19:20 | 45.45907 | 9.27906 | 360 ft | 2 kts | 90° |
| 2026-04-30 19:20 | 45.45772 | 9.27982 | 360 ft | 16 kts | 180° |
| 2026-04-30 19:21 | 45.45630 | 9.27981 | 363 ft | 25 kts | 180° |
| 2026-04-30 19:21 | 45.45282 | 9.27901 | 360 ft | 26 kts | 207° |
| 2026-04-30 19:22 | 45.44911 | 9.27915 | 362 ft | 27 kts | 164° |
| 2026-04-30 19:22 | 45.44339 | 9.27994 | 364 ft | 27 kts | 176° |
| 2026-04-30 19:23 | 45.43776 | 9.28056 | 360 ft | 28 kts | 175° |
| 2026-04-30 19:24 | 45.43443 | 9.28006 | 365 ft | 22 kts | 256° |
| 2026-04-30 19:24 | 45.43473 | 9.27827 | 364 ft | 18 kts | 327° |
| 2026-04-30 19:24 | 45.44338 | 9.27725 | 366 ft | 128 kts | 356° |
| 2026-04-30 19:25 | 45.47619 | 9.27063 | 2033 ft | 165 kts | 342° |
| 2026-04-30 19:26 | 45.50004 | 9.25799 | 2954 ft | 205 kts | 341° |
| 2026-04-30 19:26 | 45.52960 | 9.24254 | 3925 ft | 243 kts | 341° |
| 2026-04-30 19:26 | 45.54566 | 9.23438 | 4808 ft | 246 kts | 341° |
| 2026-04-30 19:27 | 45.57925 | 9.23306 | 6541 ft | 248 kts | 21° |
| 2026-04-30 19:27 | 45.61305 | 9.24361 | 8182 ft | 255 kts | 358° |
| 2026-04-30 19:28 | 45.63138 | 9.24090 | 8834 ft | 274 kts | 354° |
| 2026-04-30 19:28 | 45.67032 | 9.23456 | 10547 ft | 296 kts | 354° |
| 2026-04-30 19:29 | 45.71421 | 9.23324 | 11358 ft | 341 kts | 15° |
| 2026-04-30 19:29 | 45.73562 | 9.24853 | 12100 ft | 350 kts | 38° |
| 2026-04-30 19:30 | 45.75619 | 9.34575 | 14877 ft | 374 kts | 100° |
| 2026-04-30 19:30 | 45.74417 | 9.41896 | 16616 ft | 381 kts | 96° |
| 2026-04-30 19:31 | 45.74594 | 9.49435 | 18278 ft | 381 kts | 72° |
| 2026-04-30 19:31 | 45.75330 | 9.53090 | 18990 ft | 384 kts | 70° |
| 2026-04-30 19:31 | 45.76358 | 9.60684 | 20325 ft | 395 kts | 82° |
| 2026-04-30 19:32 | 45.76572 | 9.64619 | 20934 ft | 397 kts | 82° |
| 2026-04-30 19:32 | 45.76779 | 9.68573 | 21519 ft | 399 kts | 82° |
| 2026-04-30 19:32 | 45.76982 | 9.72553 | 22095 ft | 402 kts | 82° |
| 2026-04-30 19:32 | 45.77185 | 9.76553 | 22610 ft | 404 kts | 82° |
| 2026-04-30 19:33 | 45.77392 | 9.80582 | 23110 ft | 407 kts | 82° |
| 2026-04-30 19:33 | 45.77601 | 9.84638 | 23616 ft | 410 kts | 82° |
| 2026-04-30 19:33 | 45.77812 | 9.88714 | 24083 ft | 412 kts | 81° |
| 2026-04-30 19:33 | 45.78024 | 9.92819 | 24485 ft | 414 kts | 81° |
| 2026-04-30 19:34 | 45.78236 | 9.96947 | 24907 ft | 416 kts | 81° |
| 2026-04-30 19:34 | 45.78445 | 10.01096 | 25329 ft | 419 kts | 81° |
| 2026-04-30 19:34 | 45.78859 | 10.09457 | 26086 ft | 423 kts | 81° |
| 2026-04-30 19:35 | 45.79066 | 10.13671 | 26506 ft | 425 kts | 82° |
| 2026-04-30 19:35 | 45.79269 | 10.17908 | 26897 ft | 427 kts | 81° |
| 2026-04-30 19:35 | 45.79469 | 10.22157 | 27272 ft | 428 kts | 82° |
| 2026-04-30 19:35 | 45.79662 | 10.26423 | 27627 ft | 430 kts | 82° |
| 2026-04-30 19:36 | 45.79852 | 10.30704 | 27974 ft | 433 kts | 81° |
| 2026-04-30 19:36 | 45.80045 | 10.35032 | 28287 ft | 436 kts | 81° |
| 2026-04-30 19:36 | 45.80668 | 10.42185 | 28839 ft | 434 kts | 71° |
| 2026-04-30 19:37 | 45.81588 | 10.46283 | 29133 ft | 431 kts | 63° |
| 2026-04-30 19:37 | 45.82840 | 10.50187 | 29459 ft | 431 kts | 60° |
| 2026-04-30 19:37 | 45.84112 | 10.54067 | 29829 ft | 430 kts | 61° |
| 2026-04-30 19:37 | 45.85382 | 10.57958 | 30256 ft | 430 kts | 61° |
| 2026-04-30 19:38 | 45.86647 | 10.61847 | 30613 ft | 429 kts | 61° |
| 2026-04-30 19:38 | 45.87906 | 10.65729 | 30964 ft | 428 kts | 61° |
| 2026-04-30 19:38 | 45.89150 | 10.69572 | 31444 ft | 424 kts | 61° |
| 2026-04-30 19:38 | 45.90392 | 10.73408 | 31872 ft | 423 kts | 60° |
| 2026-04-30 19:39 | 45.91631 | 10.77234 | 32225 ft | 423 kts | 60° |
| 2026-04-30 19:39 | 45.92868 | 10.81058 | 32591 ft | 422 kts | 60° |
| 2026-04-30 19:39 | 45.94101 | 10.84879 | 32961 ft | 421 kts | 60° |
| 2026-04-30 19:39 | 45.95329 | 10.88695 | 33312 ft | 420 kts | 60° |
| 2026-04-30 19:40 | 45.96553 | 10.92510 | 33640 ft | 420 kts | 60° |
| 2026-04-30 19:40 | 45.97772 | 10.96317 | 33998 ft | 420 kts | 60° |
| 2026-04-30 19:40 | 45.98992 | 11.00132 | 34362 ft | 419 kts | 60° |
| 2026-04-30 19:40 | 46.00209 | 11.03937 | 34642 ft | 419 kts | 60° |
| 2026-04-30 19:41 | 46.01432 | 11.07754 | 34910 ft | 420 kts | 60° |
| 2026-04-30 19:41 | 46.02659 | 11.11578 | 35149 ft | 422 kts | 60° |
| 2026-04-30 19:41 | 46.03883 | 11.15406 | 35478 ft | 420 kts | 60° |
| 2026-04-30 19:41 | 46.05102 | 11.19226 | 35785 ft | 420 kts | 61° |
| 2026-04-30 19:42 | 46.06322 | 11.23061 | 36014 ft | 422 kts | 61° |
| 2026-04-30 19:42 | 46.07544 | 11.26909 | 36216 ft | 423 kts | 61° |
| 2026-04-30 19:42 | 46.10001 | 11.34648 | 36302 ft | 433 kts | 61° |
| 2026-04-30 19:43 | 46.12544 | 11.42703 | 36313 ft | 442 kts | 61° |
| 2026-04-30 19:44 | 46.16340 | 11.54799 | 36314 ft | 444 kts | 62° |
| 2026-04-30 19:44 | 46.18882 | 11.62924 | 36312 ft | 444 kts | 62° |
| 2026-04-30 19:45 | 46.21418 | 11.71054 | 36303 ft | 444 kts | 62° |
| 2026-04-30 19:45 | 46.23950 | 11.79188 | 36308 ft | 444 kts | 62° |
| 2026-04-30 19:46 | 46.26478 | 11.87334 | 36312 ft | 445 kts | 62° |
| 2026-04-30 19:46 | 46.28998 | 11.95502 | 36318 ft | 445 kts | 62° |
| 2026-04-30 19:47 | 46.31515 | 12.03676 | 36315 ft | 445 kts | 62° |
| 2026-04-30 19:47 | 46.34034 | 12.11850 | 36342 ft | 445 kts | 62° |
| 2026-04-30 19:48 | 46.36550 | 12.20040 | 36328 ft | 445 kts | 62° |
| 2026-04-30 19:48 | 46.39051 | 12.28230 | 36317 ft | 444 kts | 62° |
| 2026-04-30 19:49 | 46.41541 | 12.36426 | 36315 ft | 444 kts | 62° |
| 2026-04-30 19:49 | 46.45265 | 12.48726 | 36307 ft | 444 kts | 62° |
| 2026-04-30 19:50 | 46.47738 | 12.56918 | 36333 ft | 444 kts | 62° |
| 2026-04-30 19:50 | 46.50197 | 12.65130 | 36321 ft | 444 kts | 63° |
| 2026-04-30 19:51 | 46.52652 | 12.73336 | 36317 ft | 442 kts | 63° |
| 2026-04-30 19:51 | 46.55104 | 12.81522 | 36317 ft | 441 kts | 63° |
| 2026-04-30 19:52 | 46.57544 | 12.89704 | 36315 ft | 441 kts | 63° |
| 2026-04-30 19:52 | 46.59980 | 12.97888 | 36435 ft | 440 kts | 63° |
| 2026-04-30 19:53 | 46.61188 | 13.01974 | 36663 ft | 440 kts | 63° |
| 2026-04-30 19:53 | 46.62395 | 13.06069 | 36960 ft | 440 kts | 63° |
| 2026-04-30 19:53 | 46.63601 | 13.10159 | 37220 ft | 440 kts | 63° |
| 2026-04-30 19:53 | 46.64796 | 13.14216 | 37302 ft | 444 kts | 63° |
| 2026-04-30 19:54 | 46.67238 | 13.22514 | 37313 ft | 447 kts | 63° |
| 2026-04-30 19:54 | 46.69789 | 13.30826 | 37321 ft | 446 kts | 60° |
| 2026-04-30 19:55 | 46.72636 | 13.38759 | 37324 ft | 445 kts | 58° |
| 2026-04-30 19:55 | 46.75582 | 13.46668 | 37328 ft | 445 kts | 59° |
| 2026-04-30 19:56 | 46.78463 | 13.54665 | 37369 ft | 446 kts | 59° |
| 2026-04-30 19:56 | 46.81288 | 13.62718 | 37360 ft | 445 kts | 60° |
| 2026-04-30 19:57 | 46.84094 | 13.70776 | 37360 ft | 445 kts | 60° |
| 2026-04-30 19:57 | 46.86904 | 13.78801 | 37335 ft | 443 kts | 60° |
| 2026-04-30 19:58 | 46.89710 | 13.86816 | 37350 ft | 442 kts | 60° |
| 2026-04-30 19:58 | 46.92510 | 13.94831 | 37342 ft | 443 kts | 60° |
| 2026-04-30 19:59 | 46.95295 | 14.02855 | 37333 ft | 440 kts | 60° |
| 2026-04-30 20:00 | 46.99429 | 14.14799 | 37347 ft | 439 kts | 60° |
| 2026-04-30 20:00 | 47.02188 | 14.22792 | 37353 ft | 440 kts | 60° |
| 2026-04-30 20:01 | 47.06324 | 14.34808 | 37362 ft | 441 kts | 60° |
| 2026-04-30 20:01 | 47.09060 | 14.42788 | 37372 ft | 441 kts | 60° |
| 2026-04-30 20:02 | 47.12368 | 14.55364 | 37409 ft | 444 kts | 72° |
| 2026-04-30 20:03 | 47.14626 | 14.68553 | 37383 ft | 444 kts | 72° |
| 2026-04-30 20:03 | 47.16134 | 14.77351 | 37378 ft | 444 kts | 72° |
| 2026-04-30 20:04 | 47.17640 | 14.86157 | 37378 ft | 444 kts | 72° |
| 2026-04-30 20:05 | 47.19889 | 14.99390 | 37387 ft | 445 kts | 72° |
| 2026-04-30 20:05 | 47.22114 | 15.12652 | 37417 ft | 446 kts | 72° |
| 2026-04-30 20:06 | 47.23584 | 15.21505 | 37416 ft | 445 kts | 73° |
| 2026-04-30 20:06 | 47.25059 | 15.30360 | 37415 ft | 445 kts | 73° |
| 2026-04-30 20:07 | 47.26521 | 15.39213 | 37411 ft | 446 kts | 73° |
| 2026-04-30 20:08 | 47.28697 | 15.52514 | 37442 ft | 446 kts | 73° |
| 2026-04-30 20:08 | 47.30140 | 15.61401 | 37410 ft | 447 kts | 73° |
| 2026-04-30 20:09 | 47.31587 | 15.70324 | 37413 ft | 448 kts | 73° |
| 2026-04-30 20:09 | 47.33698 | 15.83469 | 36010 ft | 437 kts | 73° |
| 2026-04-30 20:10 | 47.35057 | 15.92002 | 34536 ft | 415 kts | 72° |
| 2026-04-30 20:10 | 47.35774 | 15.96051 | 33681 ft | 400 kts | 66° |
| 2026-04-30 20:10 | 47.36948 | 15.99608 | 32867 ft | 384 kts | 54° |
| 2026-04-30 20:11 | 47.40635 | 16.04962 | 31216 ft | 364 kts | 32° |
| 2026-04-30 20:11 | 47.42884 | 16.06558 | 30442 ft | 367 kts | 22° |
| 2026-04-30 20:11 | 47.45318 | 16.07763 | 29514 ft | 370 kts | 21° |
| 2026-04-30 20:12 | 47.50239 | 16.10199 | 27737 ft | 375 kts | 21° |
| 2026-04-30 20:12 | 47.52718 | 16.11431 | 26883 ft | 376 kts | 21° |
| 2026-04-30 20:12 | 47.55202 | 16.12668 | 26058 ft | 377 kts | 21° |
| 2026-04-30 20:13 | 47.57690 | 16.13908 | 25267 ft | 378 kts | 21° |
| 2026-04-30 20:13 | 47.60181 | 16.15152 | 24491 ft | 378 kts | 21° |
| 2026-04-30 20:13 | 47.62668 | 16.16393 | 23683 ft | 378 kts | 20° |
| 2026-04-30 20:13 | 47.65161 | 16.17635 | 22785 ft | 378 kts | 20° |
| 2026-04-30 20:14 | 47.67657 | 16.18881 | 21917 ft | 379 kts | 20° |
| 2026-04-30 20:14 | 47.70156 | 16.20132 | 21079 ft | 379 kts | 20° |
| 2026-04-30 20:14 | 47.72637 | 16.21456 | 20261 ft | 378 kts | 25° |
| 2026-04-30 20:14 | 47.74881 | 16.23466 | 19469 ft | 377 kts | 38° |
| 2026-04-30 20:15 | 47.76733 | 16.26220 | 18688 ft | 378 kts | 51° |
| 2026-04-30 20:15 | 47.78090 | 16.29573 | 17805 ft | 381 kts | 64° |
| 2026-04-30 20:15 | 47.78988 | 16.33242 | 16950 ft | 371 kts | 69° |
| 2026-04-30 20:15 | 47.79813 | 16.36797 | 16129 ft | 356 kts | 69° |
| 2026-04-30 20:16 | 47.80600 | 16.40172 | 15323 ft | 344 kts | 68° |
| 2026-04-30 20:16 | 47.81379 | 16.43494 | 14514 ft | 337 kts | 69° |
| 2026-04-30 20:16 | 47.82145 | 16.46758 | 13699 ft | 333 kts | 69° |
| 2026-04-30 20:16 | 47.82908 | 16.50007 | 12813 ft | 333 kts | 69° |
| 2026-04-30 20:17 | 47.83672 | 16.53268 | 11903 ft | 334 kts | 69° |
| 2026-04-30 20:17 | 47.84434 | 16.56534 | 11014 ft | 334 kts | 69° |
| 2026-04-30 20:17 | 47.85194 | 16.59799 | 10139 ft | 334 kts | 69° |
| 2026-04-30 20:17 | 47.85951 | 16.63061 | 9184 ft | 333 kts | 69° |
| 2026-04-30 20:18 | 47.86700 | 16.66299 | 8262 ft | 327 kts | 69° |
| 2026-04-30 20:18 | 47.87427 | 16.69448 | 7368 ft | 317 kts | 69° |
| 2026-04-30 20:18 | 47.88135 | 16.72513 | 6490 ft | 311 kts | 68° |
| 2026-04-30 20:18 | 47.88832 | 16.75542 | 5555 ft | 306 kts | 68° |
| 2026-04-30 20:19 | 47.89516 | 16.78493 | 4843 ft | 294 kts | 68° |
| 2026-04-30 20:19 | 47.90071 | 16.80316 | 4562 ft | 283 kts | 56° |
| 2026-04-30 20:19 | 47.91825 | 16.83017 | 4044 ft | 270 kts | 31° |
| 2026-04-30 20:19 | 47.93535 | 16.84034 | 3709 ft | 262 kts | 11° |
| 2026-04-30 20:20 | 47.95312 | 16.84108 | 3459 ft | 253 kts | 353° |
| 2026-04-30 20:20 | 47.96977 | 16.83384 | 3196 ft | 247 kts | 342° |
| 2026-04-30 20:20 | 47.98587 | 16.82510 | 3018 ft | 246 kts | 342° |
| 2026-04-30 20:20 | 48.00193 | 16.81643 | 3003 ft | 245 kts | 342° |
| 2026-04-30 20:21 | 48.01802 | 16.80776 | 3003 ft | 246 kts | 342° |
| 2026-04-30 20:21 | 48.03294 | 16.79531 | 3006 ft | 246 kts | 322° |
| 2026-04-30 20:21 | 48.04334 | 16.77607 | 3006 ft | 233 kts | 301° |
| 2026-04-30 20:21 | 48.05024 | 16.75511 | 3007 ft | 216 kts | 300° |
| 2026-04-30 20:22 | 48.05663 | 16.73562 | 2959 ft | 203 kts | 300° |
| 2026-04-30 20:22 | 48.06258 | 16.71746 | 2746 ft | 186 kts | 301° |
| 2026-04-30 20:22 | 48.06801 | 16.70091 | 2504 ft | 170 kts | 301° |
| 2026-04-30 20:22 | 48.07293 | 16.68591 | 2297 ft | 152 kts | 301° |
| 2026-04-30 20:23 | 48.07741 | 16.67225 | 2093 ft | 142 kts | 302° |
| 2026-04-30 20:23 | 48.08166 | 16.65931 | 1899 ft | 137 kts | 301° |
| 2026-04-30 20:23 | 48.08582 | 16.64665 | 1722 ft | 135 kts | 301° |
| 2026-04-30 20:23 | 48.08993 | 16.63411 | 1518 ft | 134 kts | 300° |
| 2026-04-30 20:24 | 48.09404 | 16.62156 | 1339 ft | 135 kts | 300° |
| 2026-04-30 20:24 | 48.09813 | 16.60905 | 1153 ft | 134 kts | 298° |
| 2026-04-30 20:24 | 48.10220 | 16.59658 | 967 ft | 133 kts | 297° |
| 2026-04-30 20:24 | 48.10626 | 16.58417 | 784 ft | 132 kts | 297° |
| 2026-04-30 20:25 | 48.11356 | 16.56180 | 611 ft | 87 kts | 296° |
| 2026-04-30 20:25 | 48.11567 | 16.55542 | 618 ft | 47 kts | 299° |
| 2026-04-30 20:26 | 48.11829 | 16.55140 | 618 ft | 19 kts | 346° |
| 2026-04-30 20:26 | 48.11816 | 16.55419 | 621 ft | 18 kts | 115° |
| 2026-04-30 20:26 | 48.11776 | 16.55541 | 610 ft | 20 kts | 116° |
| 2026-04-30 20:27 | 48.11635 | 16.55958 | 619 ft | 25 kts | 115° |
| 2026-04-30 20:27 | 48.11682 | 16.56262 | 622 ft | 18 kts | 24° |
| 2026-04-30 20:28 | 48.11714 | 16.56506 | 624 ft | 13 kts | 116° |
| 2026-04-30 20:28 | 48.11664 | 16.56653 | 616 ft | 7 kts | 115° |
| 2026-04-30 20:29 | 48.11704 | 16.56720 | 621 ft | 4 kts | 26° |
| 2026-04-30 20:30 | 48.11729 | 16.56738 | 610 ft | 0 kts | 25° |